Time;durP1;ratioP1;P1;durP2;ratioP2;P2;SDS_P1;SDS_P2;PMS_P1;PMS_P2;Temp;Humidity;BMP_temperature;BMP_pressure;BME280_temperature;BME280_humidity;BME280_pressure;Samples;Min_cycle;Max_cycle;Signal;HPM_P1;HPM_P2
2022/10/22 00:00:10;;;;;;;;;2.33;2.33;;;;;16.35;72.58;100535.06;5076464;27;45469;-73
2022/10/22 00:02:35;;;;;;;;;1.00;1.00;;;;;16.33;72.68;100536.25;5076134;27;46643;-70
2022/10/22 00:05:01;;;;;;;;;1.00;1.00;;;;;15.60;72.61;100411.09;5075344;28;48680;-71
2022/10/22 00:07:26;;;;;;;;;2.33;1.33;;;;;15.69;72.66;100426.91;5076774;28;45703;-72
2022/10/22 00:09:52;;;;;;;;;4.67;3.33;;;;;16.00;72.58;100491.03;5077565;27;45493;-71
2022/10/22 00:12:18;;;;;;;;;3.67;2.00;;;;;16.25;72.58;100539.88;5093574;27;47810;-73
2022/10/22 00:14:43;;;;;;;;;3.00;3.00;;;;;16.05;72.34;100509.28;5097413;27;46243;-71
2022/10/22 00:17:09;;;;;;;;;1.33;1.00;;;;;16.17;72.78;100528.41;5081093;28;45496;-73
2022/10/22 00:19:34;;;;;;;;;2.00;2.00;;;;;15.85;72.86;100484.88;5076945;27;45439;-72
2022/10/22 00:21:59;;;;;;;;;2.67;1.33;;;;;16.21;72.66;100545.78;5076700;27;46444;-71
2022/10/22 00:24:25;;;;;;;;;1.00;1.00;;;;;15.78;72.91;100486.59;5092564;27;45512;-72
2022/10/22 00:26:51;;;;;;;;;1.33;1.33;;;;;15.72;73.25;100490.84;5076800;27;45413;-70
2022/10/22 00:29:18;;;;;;;;;2.67;2.67;;;;;16.14;73.14;100559.09;5077501;27;45600;-71
2022/10/22 00:31:48;;;;;;;;;4.00;2.67;;;;;16.01;73.12;100540.97;5079926;27;45633;-71
2022/10/22 00:34:15;;;;;;;;;4.33;2.00;;;;;16.00;73.21;100546.53;5080136;28;45221;-72
2022/10/22 00:36:40;;;;;;;;;4.00;1.00;;;;;16.08;73.61;100566.06;5079917;27;45310;-73
2022/10/22 00:39:05;;;;;;;;;2.00;1.00;;;;;16.09;73.33;100578.44;5080145;27;45335;-72
2022/10/22 00:41:31;;;;;;;;;5.00;2.33;;;;;15.99;73.31;100572.50;5079582;27;50148;-71
2022/10/22 00:44:00;;;;;;;;;2.00;1.00;;;;;15.79;73.14;100528.47;5079895;27;45420;-71
2022/10/22 00:46:26;;;;;;;;;5.00;4.33;;;;;16.09;73.35;100582.97;5079870;28;45359;-71
2022/10/22 00:48:53;;;;;;;;;2.00;2.00;;;;;16.05;73.32;100587.88;5095910;27;45615;-72
2022/10/22 00:51:22;;;;;;;;;1.33;1.33;;;;;15.48;73.07;100481.19;5080785;27;45457;-73
2022/10/22 00:53:54;;;;;;;;;3.00;1.67;;;;;15.97;73.24;100574.53;5081012;27;45272;-71
2022/10/22 00:56:22;;;;;;;;;2.00;1.33;;;;;16.10;73.45;100595.38;5080192;27;45519;-73
2022/10/22 00:58:55;;;;;;;;;3.00;2.33;;;;;16.11;73.20;100602.41;5079980;27;45380;-72
2022/10/22 01:01:24;;;;;;;;;2.00;2.00;;;;;16.11;73.20;100591.66;5079258;27;46184;-70
2022/10/22 01:03:50;;;;;;;;;2.67;2.67;;;;;16.03;73.46;100607.84;5095188;27;45633;-71
2022/10/22 01:06:23;;;;;;;;;3.00;3.00;;;;;16.01;73.79;100613.38;5079369;27;45568;-72
2022/10/22 01:09:29;;;;;;;;;1.00;1.00;;;;;16.03;73.63;100603.31;5079646;27;45561;-73
2022/10/22 01:12:00;;;;;;;;;1.00;1.00;;;;;16.02;73.54;100604.34;5095804;27;46578;-71
2022/10/22 01:14:32;;;;;;;;;3.00;1.67;;;;;16.01;73.69;100618.72;5078010;28;45584;-73
2022/10/22 01:17:17;;;;;;;;;4.00;1.00;;;;;15.92;73.95;100609.13;5078098;28;45328;-73
2022/10/22 01:20:17;;;;;;;;;2.33;2.00;;;;;15.97;73.88;100617.44;5079474;28;45465;-70
2022/10/22 01:23:01;;;;;;;;;1.00;1.00;;;;;15.95;73.75;100619.47;5078947;28;45828;-71
2022/10/22 01:25:33;;;;;;;;;3.00;1.00;;;;;15.99;73.21;100619.94;5078989;27;45356;-72
2022/10/22 01:28:22;;;;;;;;;2.00;1.00;;;;;16.02;73.10;100623.09;5079183;27;45281;-71
2022/10/22 01:30:53;;;;;;;;;1.00;1.00;;;;;15.83;73.28;100610.22;5079384;27;45451;-72
2022/10/22 01:33:21;;;;;;;;;2.00;2.00;;;;;15.92;72.83;100625.19;5078921;27;46529;-71
2022/10/22 01:35:48;;;;;;;;;1.00;1.00;;;;;16.06;73.38;100637.81;5079027;27;45401;-71
2022/10/22 01:38:18;;;;;;;;;2.00;2.00;;;;;15.98;73.21;100640.56;5079063;27;45334;-71
2022/10/22 01:40:45;;;;;;;;;1.67;1.67;;;;;15.68;72.99;100594.09;5079162;27;45439;-71
2022/10/22 01:43:10;;;;;;;;;0.67;0.67;;;;;15.85;73.01;100608.19;5078823;27;46366;-71
2022/10/22 01:45:49;;;;;;;;;4.33;0.67;;;;;15.24;73.14;100520.75;5078930;27;45250;-72
2022/10/22 01:48:35;;;;;;;;;3.00;1.67;;;;;16.05;73.04;100652.25;5079011;27;45434;-71
2022/10/22 01:51:25;;;;;;;;;1.67;1.67;;;;;16.07;72.80;100641.31;5080980;28;45264;-73
2022/10/22 01:53:56;;;;;;;;;1.67;1.00;;;;;16.04;73.02;100649.75;5078798;28;45546;-72
2022/10/22 01:57:11;;;;;;;;;1.33;1.33;;;;;16.07;72.74;100650.22;5078386;27;45341;-73
2022/10/22 01:59:36;;;;;;;;;2.00;2.00;;;;;16.08;72.99;100651.03;5036139;28;45493;-73
2022/10/22 02:02:35;;;;;;;;;3.00;2.00;;;;;15.84;72.70;100606.53;5036846;28;45605;-72
2022/10/22 02:05:18;;;;;;;;;3.33;2.00;;;;;16.17;72.36;100649.09;5060318;27;46596;-70
2022/10/22 02:07:58;;;;;;;;;0.67;0.67;;;;;16.23;72.20;100651.91;5078177;28;46244;-71
2022/10/22 02:10:26;;;;;;;;;1.00;1.00;;;;;15.67;72.12;100554.06;5078497;28;45396;-70
2022/10/22 02:12:54;;;;;;;;;2.33;2.00;;;;;16.31;71.81;100651.81;5078641;27;45275;-71
2022/10/22 02:15:22;;;;;;;;;1.00;1.00;;;;;16.16;72.00;100618.75;5077937;27;45540;-71
2022/10/22 02:17:54;;;;;;;;;4.00;1.00;;;;;16.43;71.54;100669.13;5078679;27;45374;-71
2022/10/22 02:20:26;;;;;;;;;2.00;1.00;;;;;16.47;71.14;100666.91;5078572;27;45261;-72
2022/10/22 02:22:52;;;;;;;;;2.75;2.75;;;;;16.41;71.36;100644.31;5078483;27;45398;-72
2022/10/22 02:25:21;;;;;;;;;2.00;0.75;;;;;16.32;71.29;100636.53;5076889;28;48591;-72
2022/10/22 02:28:09;;;;;;;;;1.00;1.00;;;;;16.41;71.25;100659.56;5093732;27;46330;-70
2022/10/22 02:30:37;;;;;;;;;2.50;2.50;;;;;15.60;71.43;100529.00;5072453;27;45451;-72
2022/10/22 02:33:33;;;;;;;;;1.00;1.00;;;;;16.33;71.38;100654.31;5077172;28;45486;-71
2022/10/22 02:36:01;;;;;;;;;3.00;1.00;;;;;16.15;71.41;100641.25;5069086;27;45508;-71
2022/10/22 02:38:28;;;;;;;;;1.00;1.00;;;;;16.00;71.65;100619.75;5093587;27;45456;-72
2022/10/22 02:40:53;;;;;;;;;3.00;3.00;;;;;16.33;71.33;100665.03;5076533;28;45608;-72
2022/10/22 02:43:19;;;;;;;;;3.00;1.00;;;;;16.35;71.29;100679.94;5076859;28;45494;-71
2022/10/22 02:45:45;;;;;;;;;1.33;1.00;;;;;16.29;71.89;100674.47;5077668;27;45481;-74
2022/10/22 02:48:10;;;;;;;;;1.67;1.00;;;;;15.99;71.95;100634.16;5077813;27;45302;-71
2022/10/22 02:50:36;;;;;;;;;2.00;2.00;;;;;16.18;71.63;100667.69;5077952;28;45327;-71
2022/10/22 02:53:01;;;;;;;;;3.00;1.00;;;;;16.23;71.92;100685.94;5075834;28;45658;-72
2022/10/22 02:55:27;;;;;;;;;2.33;2.33;;;;;15.87;71.92;100626.75;5076124;28;46615;-72
2022/10/22 02:57:52;;;;;;;;;2.33;1.33;;;;;16.20;72.09;100695.16;5076190;27;45492;-70
2022/10/22 03:00:17;;;;;;;;;2.00;1.00;;;;;16.10;71.85;100683.88;5076271;27;45500;-71
2022/10/22 03:02:43;;;;;;;;;2.50;1.00;;;;;16.26;71.68;100697.13;5077888;27;45289;-70
2022/10/22 03:05:08;;;;;;;;;2.00;1.00;;;;;15.84;71.66;100633.34;5076737;28;57448;-71
2022/10/22 03:07:34;;;;;;;;;2.00;2.00;;;;;16.15;71.73;100680.63;5077289;28;45348;-72
2022/10/22 03:09:59;;;;;;;;;2.33;2.00;;;;;16.31;71.71;100712.69;5077574;28;46080;-70
2022/10/22 03:12:24;;;;;;;;;3.33;1.33;;;;;16.27;71.52;100708.69;5093304;27;45577;-71
2022/10/22 03:14:50;;;;;;;;;1.00;1.00;;;;;16.31;71.68;100699.25;5092912;27;47539;-71
2022/10/22 03:17:15;;;;;;;;;2.00;2.00;;;;;16.11;71.50;100677.50;5080093;27;45235;-71
2022/10/22 03:19:41;;;;;;;;;2.67;1.00;;;;;16.13;71.80;100700.44;5077518;27;45264;-72
2022/10/22 03:22:14;;;;;;;;;1.33;1.33;;;;;16.32;71.93;100717.03;5078102;27;45534;-70
2022/10/22 03:24:43;;;;;;;;;0.67;0.67;;;;;16.31;71.89;100720.72;5076114;28;47538;-71
2022/10/22 03:27:11;;;;;;;;;2.25;1.25;;;;;16.20;71.79;100710.41;5092515;27;45558;-72
2022/10/22 03:29:39;;;;;;;;;3.00;2.00;;;;;16.25;71.47;100713.41;5077487;27;45314;-73
2022/10/22 03:32:04;;;;;;;;;2.00;2.00;;;;;16.26;72.01;100723.13;5077924;28;45341;-70
2022/10/22 03:34:30;;;;;;;;;2.67;1.33;;;;;16.02;71.86;100682.09;5078208;27;45962;-72
2022/10/22 03:36:57;;;;;;;;;2.67;2.33;;;;;16.29;71.72;100734.31;5078210;27;45259;-71
2022/10/22 03:39:22;;;;;;;;;2.00;2.00;;;;;16.19;71.65;100711.44;5077530;27;45465;-72
2022/10/22 03:41:50;;;;;;;;;4.75;2.00;;;;;16.31;71.99;100736.81;5077222;27;45501;-71
2022/10/22 03:44:16;;;;;;;;;2.33;1.33;;;;;16.25;71.78;100726.84;5076813;27;46248;-72
2022/10/22 03:46:42;;;;;;;;;1.00;1.00;;;;;16.29;72.06;100741.53;5076892;27;45504;-71
2022/10/22 03:49:08;;;;;;;;;1.50;1.25;;;;;16.16;71.64;100717.16;5077479;27;45247;-69
2022/10/22 03:51:34;;;;;;;;;2.00;1.33;;;;;16.12;71.84;100720.22;5077678;27;45215;-71
2022/10/22 03:54:00;;;;;;;;;1.00;1.00;;;;;16.28;71.59;100748.75;5092269;27;47370;-70
2022/10/22 03:56:25;;;;;;;;;1.00;1.00;;;;;16.27;71.83;100746.25;5076362;27;45280;-71
2022/10/22 03:58:50;;;;;;;;;3.00;1.00;;;;;15.44;71.88;100621.88;5076826;27;45294;-72
2022/10/22 04:01:16;;;;;;;;;0.67;0.67;;;;;16.15;72.20;100735.13;5075636;28;45416;-72
2022/10/22 04:03:41;;;;;;;;;1.67;1.67;;;;;15.83;72.25;100687.97;5076651;28;48703;-72
2022/10/22 04:06:09;;;;;;;;;1.00;1.00;;;;;15.93;72.61;100718.03;5079877;27;48500;-71
2022/10/22 04:08:37;;;;;;;;;1.00;1.00;;;;;16.21;72.19;100758.53;5080495;27;45567;-70
2022/10/22 04:11:02;;;;;;;;;2.33;2.33;;;;;16.26;72.18;100761.53;5078871;28;45610;-70
2022/10/22 04:13:27;;;;;;;;;2.67;1.00;;;;;16.24;71.80;100750.13;5080330;27;45800;-72
2022/10/22 04:15:53;;;;;;;;;2.33;1.00;;;;;16.21;71.81;100753.16;5079879;27;51914;-72
2022/10/22 04:18:20;;;;;;;;;0.33;0.33;;;;;16.12;71.75;100733.63;5080235;27;45197;-71
2022/10/22 04:20:46;;;;;;;;;3.67;1.33;;;;;16.33;71.85;100775.88;5080325;27;45244;-70
2022/10/22 04:23:11;;;;;;;;;1.00;1.00;;;;;16.04;71.91;100728.34;5080067;28;46564;-70
2022/10/22 04:25:37;;;;;;;;;1.67;1.67;;;;;16.25;71.72;100759.03;5080008;27;45924;-73
2022/10/22 04:28:05;;;;;;;;;4.67;2.00;;;;;16.17;71.65;100740.28;5080302;27;45547;-72
2022/10/22 04:30:31;;;;;;;;;2.00;1.00;;;;;16.19;71.49;100749.00;5080576;27;45308;-72
2022/10/22 04:32:56;;;;;;;;;4.00;4.00;;;;;16.25;71.22;100749.13;5079664;27;45411;-69
2022/10/22 04:35:21;;;;;;;;;2.67;2.67;;;;;16.24;71.32;100746.63;5079616;27;45584;-70
2022/10/22 04:37:47;;;;;;;;;3.00;1.00;;;;;16.49;71.19;100782.94;5080096;27;45742;-72
2022/10/22 04:40:12;;;;;;;;;3.67;2.00;;;;;15.54;71.30;100624.31;5079890;27;45504;-69
2022/10/22 04:42:37;;;;;;;;;3.33;2.00;;;;;16.26;70.69;100747.28;5079602;27;45527;-70
2022/10/22 04:45:03;;;;;;;;;3.67;1.00;;;;;16.01;70.88;100704.53;5079490;27;45484;-69
2022/10/22 04:47:28;;;;;;;;;4.00;3.00;;;;;16.38;71.01;100770.78;5079692;27;45197;-70
2022/10/22 04:49:54;;;;;;;;;1.00;1.00;;;;;16.26;71.06;100755.31;5078189;27;45619;-72
2022/10/22 04:52:19;;;;;;;;;2.33;1.67;;;;;16.51;71.24;100813.13;5094857;27;47835;-70
2022/10/22 04:54:45;;;;;;;;;1.67;1.67;;;;;15.95;71.32;100712.47;5079328;27;45300;-70
2022/10/22 04:57:11;;;;;;;;;1.67;1.67;;;;;16.24;71.25;100757.34;5079535;27;45281;-71
2022/10/22 04:59:36;;;;;;;;;1.25;1.00;;;;;16.37;71.17;100779.03;5079754;27;45473;-71
2022/10/22 05:02:01;;;;;;;;;1.00;1.00;;;;;16.45;71.31;100795.06;5077703;27;48484;-72
2022/10/22 05:04:27;;;;;;;;;1.00;1.00;;;;;16.52;71.49;100803.22;5078986;27;45362;-71
2022/10/22 05:06:52;;;;;;;;;1.25;1.25;;;;;16.51;71.05;100812.28;5079620;28;45224;-72
2022/10/22 05:09:19;;;;;;;;;2.67;1.33;;;;;16.51;71.49;100815.81;5079622;27;45544;-73
2022/10/22 05:11:47;;;;;;;;;3.00;1.75;;;;;16.13;71.17;100734.47;5094805;27;48394;-73
2022/10/22 05:14:15;;;;;;;;;1.25;1.00;;;;;16.06;71.38;100733.53;5079328;27;45398;-70
2022/10/22 05:16:41;;;;;;;;;1.00;1.00;;;;;16.36;71.03;100770.13;5080242;27;45437;-72
2022/10/22 05:19:07;;;;;;;;;3.00;2.00;;;;;15.70;71.12;100663.59;5080783;27;45468;-72
2022/10/22 05:21:33;;;;;;;;;2.00;2.00;;;;;16.46;71.04;100787.84;5078825;27;45570;-74
2022/10/22 05:23:58;;;;;;;;;3.00;3.00;;;;;16.68;71.12;100820.06;5078976;27;45355;-72
2022/10/22 05:26:25;;;;;;;;;3.67;1.33;;;;;16.62;70.88;100815.38;5079724;27;45448;-70
2022/10/22 05:28:51;;;;;;;;;2.00;2.00;;;;;16.60;71.13;100812.03;5080656;27;45407;-71
2022/10/22 05:31:17;;;;;;;;;3.67;3.67;;;;;16.72;70.87;100836.63;5078959;27;45776;-74
2022/10/22 05:33:44;;;;;;;;;4.00;4.00;;;;;15.92;70.81;100686.03;5078851;27;45251;-71
2022/10/22 05:36:13;;;;;;;;;5.33;2.33;;;;;16.60;70.40;100795.09;5094892;27;45279;-73
2022/10/22 05:38:38;;;;;;;;;4.00;4.00;;;;;16.82;70.55;100833.66;5077847;27;45595;-71
2022/10/22 05:41:07;;;;;;;;;1.00;1.00;;;;;16.87;70.24;100831.28;5078655;27;45714;-70
2022/10/22 05:43:33;;;;;;;;;4.33;3.00;;;;;16.90;70.30;100833.59;5078921;27;45396;-71
2022/10/22 05:46:03;;;;;;;;;4.67;2.67;;;;;16.90;70.41;100839.81;5078692;27;45502;-72
2022/10/22 05:48:29;;;;;;;;;2.00;2.00;;;;;16.63;70.00;100802.81;5078920;27;45382;-71
2022/10/22 05:50:55;;;;;;;;;3.00;2.00;;;;;16.77;70.04;100842.28;5078259;27;46591;-71
2022/10/22 05:53:20;;;;;;;;;2.00;2.00;;;;;16.65;70.40;100836.50;5078826;27;45253;-71
2022/10/22 05:55:46;;;;;;;;;2.67;2.00;;;;;16.64;71.10;100840.19;5078742;28;45363;-71
2022/10/22 05:58:12;;;;;;;;;3.00;3.00;;;;;16.55;70.90;100835.91;5078846;27;45403;-71
2022/10/22 06:00:38;;;;;;;;;4.67;2.00;;;;;16.17;71.04;100778.69;5078216;27;46647;-71
2022/10/22 06:03:04;;;;;;;;;2.00;1.33;;;;;16.50;71.15;100838.28;5078680;28;45306;-72
2022/10/22 06:05:30;;;;;;;;;5.00;3.33;;;;;16.46;71.34;100853.09;5076946;27;45479;-70
2022/10/22 06:07:56;;;;;;;;;3.00;2.00;;;;;16.10;71.47;100789.31;5077268;28;45565;-71
2022/10/22 06:10:22;;;;;;;;;0.00;0.00;;;;;15.59;71.29;100704.19;5078366;27;45309;-73
2022/10/22 06:12:48;;;;;;;;;3.00;2.00;;;;;16.39;71.85;100844.06;5078338;27;45275;-70
2022/10/22 06:15:17;;;;;;;;;2.33;2.33;;;;;16.30;71.64;100842.47;5078672;27;45674;-70
2022/10/22 06:17:46;;;;;;;;;3.00;3.00;;;;;16.25;72.02;100850.22;5078720;27;45445;-74
2022/10/22 06:20:13;;;;;;;;;3.00;2.00;;;;;16.14;71.79;100816.59;5078698;27;46568;-72
2022/10/22 06:22:39;;;;;;;;;3.33;2.00;;;;;15.94;71.92;100786.72;5078030;27;45441;-72
2022/10/22 06:25:05;;;;;;;;;4.75;1.50;;;;;15.79;72.08;100780.44;5078100;27;45528;-72
2022/10/22 06:27:31;;;;;;;;;1.00;1.00;;;;;16.21;72.35;100851.56;5077528;27;45418;-74
2022/10/22 06:29:56;;;;;;;;;3.67;1.67;;;;;16.09;72.21;100827.88;5077776;27;46568;-72
2022/10/22 06:32:21;;;;;;;;;3.00;1.00;;;;;16.31;72.39;100865.59;5076557;28;45417;-71
2022/10/22 06:34:49;;;;;;;;;2.33;2.33;;;;;16.15;72.29;100833.53;5078114;27;45782;-72
2022/10/22 06:37:14;;;;;;;;;2.00;2.00;;;;;16.28;72.30;100863.28;5078370;27;45461;-71
2022/10/22 06:39:40;;;;;;;;;2.00;2.00;;;;;16.27;72.33;100865.13;5077676;27;46394;-74
2022/10/22 06:42:05;;;;;;;;;3.00;2.00;;;;;16.20;72.45;100879.41;5077775;27;45520;-71
2022/10/22 06:44:31;;;;;;;;;3.00;2.00;;;;;15.91;72.23;100811.22;5078057;27;45532;-71
2022/10/22 06:46:56;;;;;;;;;3.33;3.00;;;;;16.26;72.21;100878.72;5093528;27;48105;-71
2022/10/22 06:49:21;;;;;;;;;4.00;2.33;;;;;16.19;72.24;100872.38;5094358;27;48469;-70
2022/10/22 06:51:52;;;;;;;;;2.75;2.00;;;;;16.20;72.16;100866.00;5078032;27;45326;-71
2022/10/22 06:54:18;;;;;;;;;4.25;3.00;;;;;16.27;72.15;100875.03;5078041;27;45283;-70
2022/10/22 06:56:43;;;;;;;;;2.75;2.50;;;;;16.43;71.59;100902.59;5093578;27;45605;-73
2022/10/22 06:59:08;;;;;;;;;2.33;2.00;;;;;16.30;71.72;100880.88;5078729;27;46426;-71
2022/10/22 07:01:35;;;;;;;;;3.00;3.00;;;;;16.20;71.46;100857.97;5094068;27;45966;-73
2022/10/22 07:04:01;;;;;;;;;3.00;2.00;;;;;16.43;71.20;100905.28;5078714;27;45210;-73
2022/10/22 07:06:28;;;;;;;;;4.00;1.75;;;;;16.36;71.81;100890.06;5077896;27;45258;-74
2022/10/22 07:08:55;;;;;;;;;2.75;2.50;;;;;16.17;71.28;100839.53;5071652;28;47605;-71
2022/10/22 07:11:23;;;;;;;;;5.33;3.00;;;;;16.67;71.06;100915.03;5077570;27;45491;-72
2022/10/22 07:13:50;;;;;;;;;3.67;2.67;;;;;16.64;70.87;100899.25;5077485;27;45301;-71
2022/10/22 07:16:17;;;;;;;;;3.00;3.00;;;;;16.77;70.18;100911.25;5076232;27;45599;-73
2022/10/22 07:18:43;;;;;;;;;4.50;2.50;;;;;15.09;70.08;100641.19;5076970;27;46521;-72
2022/10/22 07:21:12;;;;;;;;;1.75;1.00;;;;;16.94;69.95;100920.84;5077188;27;45473;-72
2022/10/22 07:23:38;;;;;;;;;3.50;2.75;;;;;16.98;69.29;100884.53;5076955;27;45397;-70
2022/10/22 07:26:06;;;;;;;;;4.00;3.00;;;;;17.90;67.75;100939.69;5063623;27;45129;-72
2022/10/22 07:28:32;;;;;;;;;5.50;2.00;;;;;18.35;66.36;100935.06;5072570;28;46442;-72
2022/10/22 07:30:58;;;;;;;;;2.50;2.50;;;;;18.67;64.56;100906.03;5077208;27;45293;-75
2022/10/22 07:33:24;;;;;;;;;2.75;2.75;;;;;18.99;64.06;100929.69;5075748;27;45289;-73
2022/10/22 07:35:49;;;;;;;;;2.00;1.00;;;;;19.35;62.94;100936.84;5076384;28;45360;-69
2022/10/22 07:38:15;;;;;;;;;3.00;1.75;;;;;19.68;61.72;100918.22;5076868;27;45672;-72
2022/10/22 07:40:40;;;;;;;;;3.00;2.00;;;;;20.24;60.09;100916.16;5080290;27;45372;-73
2022/10/22 07:43:05;;;;;;;;;4.00;3.00;;;;;20.76;58.00;100911.91;5081068;27;45391;-73
2022/10/22 07:45:32;;;;;;;;;3.00;1.00;;;;;20.83;56.28;100790.34;5078076;27;45641;-73
2022/10/22 07:47:59;;;;;;;;;3.25;1.00;;;;;22.28;54.23;100937.91;5079462;27;46513;-72
2022/10/22 07:50:25;;;;;;;;;4.00;2.50;;;;;22.52;52.98;100899.22;5080738;27;45252;-75
2022/10/22 07:52:50;;;;;;;;;2.00;2.00;;;;;22.47;51.17;100825.88;5081221;27;45229;-72
2022/10/22 07:55:16;;;;;;;;;1.75;1.75;;;;;22.68;49.75;100809.25;5081181;27;45240;-72
2022/10/22 07:57:41;;;;;;;;;3.75;1.00;;;;;23.72;49.24;100940.56;5079160;28;46941;-74
2022/10/22 08:00:08;;;;;;;;;3.00;2.25;;;;;24.12;48.34;100940.91;5079806;27;45641;-72
2022/10/22 08:02:33;;;;;;;;;2.00;2.00;;;;;24.05;47.51;100940.19;5095079;27;45472;-71
2022/10/22 08:04:59;;;;;;;;;2.00;2.00;;;;;23.84;48.01;100908.06;5080936;28;45401;-73
2022/10/22 08:07:25;;;;;;;;;1.50;1.50;;;;;24.30;47.66;100922.97;5078878;28;45824;-71
2022/10/22 08:09:50;;;;;;;;;3.75;3.00;;;;;24.49;46.58;100940.88;5080503;27;45443;-73
2022/10/22 08:12:16;;;;;;;;;3.25;3.00;;;;;24.75;46.34;100942.38;5080299;27;45402;-75
2022/10/22 08:14:41;;;;;;;;;5.50;4.00;;;;;24.23;44.85;100798.06;5061600;28;45298;-73
2022/10/22 08:17:06;;;;;;;;;2.00;2.00;;;;;25.56;43.87;100940.81;5072471;27;47100;-75
2022/10/22 08:19:32;;;;;;;;;3.00;3.00;;;;;26.22;42.82;100929.44;5075357;27;45524;-73
2022/10/22 08:21:58;;;;;;;;;2.50;2.50;;;;;26.72;41.62;100922.50;5079022;27;45365;-71
2022/10/22 08:24:25;;;;;;;;;4.25;3.00;;;;;27.04;40.77;100890.06;5079508;27;45453;-73
2022/10/22 08:26:53;;;;;;;;;2.00;2.00;;;;;27.25;40.18;100931.06;5084837;27;46009;-74
2022/10/22 08:29:20;;;;;;;;;3.75;1.00;;;;;27.19;40.36;100963.97;5080000;27;46064;-73
2022/10/22 08:31:45;;;;;;;;;2.25;1.50;;;;;26.56;40.61;100877.75;5081304;27;45232;-73
2022/10/22 08:34:11;;;;;;;;;2.25;1.25;;;;;26.86;40.69;100957.41;5079749;27;45382;-74
2022/10/22 08:36:36;;;;;;;;;2.00;2.00;;;;;25.71;41.33;100845.88;5095832;27;45841;-72
2022/10/22 08:39:02;;;;;;;;;5.00;3.00;;;;;24.90;41.66;100786.91;5080095;27;45387;-73
2022/10/22 08:41:27;;;;;;;;;3.00;3.00;;;;;25.39;42.19;100848.16;5079605;28;45467;-72
2022/10/22 08:44:11;;;;;;;;;3.00;3.00;;;;;25.65;42.59;100956.56;5080847;27;45398;-72
2022/10/22 08:46:45;;;;;;;;;1.75;1.75;;;;;25.56;43.15;100960.72;5087033;27;46693;-73
2022/10/22 08:49:23;;;;;;;;;2.50;2.50;;;;;25.55;43.06;100956.31;5101820;27;45343;-74
2022/10/22 08:51:50;;;;;;;;;3.00;1.75;;;;;25.04;43.33;100861.81;5081084;27;45428;-72
2022/10/22 08:54:29;;;;;;;;;4.75;2.00;;;;;26.33;41.79;100964.00;5077476;28;45299;-72
2022/10/22 08:57:07;;;;;;;;;3.00;3.00;;;;;26.62;41.26;100967.59;5078861;28;46543;-73
2022/10/22 09:00:00;;;;;;;;;2.00;2.00;;;;;25.18;41.08;100703.50;5059489;28;45493;-76
2022/10/22 09:02:33;;;;;;;;;4.00;3.00;;;;;27.60;38.53;100968.13;5075913;27;45432;-73
2022/10/22 09:05:28;;;;;;;;;2.00;2.00;;;;;28.42;37.99;100964.59;5079734;27;45505;-74
2022/10/22 09:07:54;;;;;;;;;7.75;4.75;;;;;29.36;36.50;100966.84;5041013;27;46141;-76
2022/10/22 09:10:25;;;;;;;;;2.00;1.25;;;;;29.29;35.38;100854.78;5080230;27;45565;-71
2022/10/22 09:12:51;;;;;;;;;4.25;4.25;;;;;30.31;34.18;100932.00;5079819;27;45500;-72
2022/10/22 09:15:18;;;;;;;;;3.00;3.00;;;;;30.79;33.79;100962.84;5074121;27;45299;-72
2022/10/22 09:18:11;;;;;;;;;2.25;2.25;;;;;30.51;33.81;100964.13;5078441;27;48565;-75
2022/10/22 09:21:11;;;;;;;;;2.50;2.50;;;;;28.92;35.37;100881.38;5095165;27;46314;-74
2022/10/22 09:23:59;;;;;;;;;2.25;2.25;;;;;28.62;36.71;100962.06;5078744;27;45396;-74
2022/10/22 09:26:26;;;;;;;;;4.25;4.25;;;;;28.00;38.36;100962.41;5079629;28;45419;-74
2022/10/22 09:28:52;;;;;;;;;5.00;2.00;;;;;27.49;39.14;100966.34;5079451;28;46610;-74
2022/10/22 09:31:17;;;;;;;;;3.25;3.25;;;;;26.69;40.53;100923.81;5079332;28;45521;-75
2022/10/22 09:33:46;;;;;;;;;2.75;2.75;;;;;26.01;42.18;100905.59;5079212;27;45442;-73
2022/10/22 09:36:16;;;;;;;;;3.50;3.00;;;;;26.04;42.32;100949.53;5079825;27;45314;-73
2022/10/22 09:38:48;;;;;;;;;4.50;2.25;;;;;25.60;43.40;100980.09;5079138;27;45683;-74
2022/10/22 09:41:14;;;;;;;;;3.25;3.25;;;;;24.69;44.39;100875.34;5079087;27;45425;-74
2022/10/22 09:43:39;;;;;;;;;2.75;2.00;;;;;24.80;45.03;100969.69;5079259;28;45516;-73
2022/10/22 09:46:14;;;;;;;;;4.25;2.25;;;;;24.16;45.96;100916.84;5077643;27;45286;-75
2022/10/22 09:48:48;;;;;;;;;2.75;2.00;;;;;24.00;47.17;100963.63;5067746;27;45815;-76
2022/10/22 09:51:21;;;;;;;;;2.50;2.00;;;;;23.71;48.22;100949.75;5077457;28;45272;-74
2022/10/22 09:53:56;;;;;;;;;2.75;2.75;;;;;23.27;49.04;100945.38;5077892;27;45373;-73
2022/10/22 09:56:42;;;;;;;;;1.25;1.25;;;;;22.76;49.82;100895.69;5096039;27;45470;-75
2022/10/22 09:59:23;;;;;;;;;2.50;2.25;;;;;22.88;50.49;100960.09;5079032;28;45579;-73
2022/10/22 10:01:56;;;;;;;;;2.50;1.50;;;;;22.50;51.06;100941.13;5081153;27;45460;-75
2022/10/22 10:04:22;;;;;;;;;4.00;3.00;;;;;22.43;51.69;100962.84;5077237;27;45312;-74
2022/10/22 10:06:54;;;;;;;;;2.25;2.25;;;;;21.97;52.57;100925.91;5078222;27;45374;-74
2022/10/22 10:09:23;;;;;;;;;1.50;1.00;;;;;21.47;53.21;100876.13;5079209;27;45449;-71
2022/10/22 10:12:03;;;;;;;;;7.25;3.75;;;;;21.64;53.74;100931.44;5078765;27;45353;-75
2022/10/22 10:14:46;;;;;;;;;1.75;1.00;;;;;21.62;53.84;100946.22;5095345;27;45522;-75
2022/10/22 10:17:29;;;;;;;;;10.33;7.00;;;;;21.33;54.43;100917.75;5075958;27;45505;-76
2022/10/22 10:20:08;;;;;;;;;5.33;4.33;;;;;21.48;54.63;100967.91;5069974;28;46553;-76
2022/10/22 10:22:44;;;;;;;;;1.00;1.00;;;;;21.33;55.33;100961.88;5077874;27;45355;-76
2022/10/22 10:25:25;;;;;;;;;3.00;3.00;;;;;21.17;55.79;100957.69;5093355;27;45390;-74
2022/10/22 10:28:06;;;;;;;;;2.50;2.00;;;;;21.24;56.03;100972.06;5079480;27;45411;-75
2022/10/22 10:30:36;;;;;;;;;3.50;2.25;;;;;20.38;56.05;100836.00;5078336;28;45678;-75
2022/10/22 10:33:15;;;;;;;;;3.00;2.75;;;;;20.10;56.22;100792.16;5078531;27;45362;-75
2022/10/22 10:36:11;;;;;;;;;6.25;4.00;;;;;21.11;56.37;100965.78;5079130;27;45258;-76
2022/10/22 10:38:55;;;;;;;;;6.67;5.00;;;;;21.06;56.71;100974.53;5077932;27;45328;-76
2022/10/22 10:41:38;;;;;;;;;2.00;2.00;;;;;21.07;56.72;100972.66;5078982;28;46519;-73
2022/10/22 10:44:25;;;;;;;;;6.50;3.00;;;;;21.06;56.66;100977.25;5080948;27;46013;-74
2022/10/22 10:47:12;;;;;;;;;3.50;3.00;;;;;21.03;57.07;100979.53;5079227;27;45287;-75
2022/10/22 10:49:37;;;;;;;;;5.00;3.50;;;;;20.74;57.40;100934.78;5078806;28;45478;-78
2022/10/22 10:52:30;;;;;;;;;5.50;5.50;;;;;20.98;57.06;100974.72;5096075;27;45583;-74
2022/10/22 10:55:00;;;;;;;;;6.00;4.67;;;;;20.99;57.57;100980.97;5088323;27;45591;-76
2022/10/22 10:58:01;;;;;;;;;4.00;4.00;;;;;20.99;57.33;100978.25;5097634;27;45458;-74
2022/10/22 11:00:38;;;;;;;;;1.50;1.25;;;;;20.78;57.55;100936.03;5079764;27;45409;-75
2022/10/22 11:03:25;;;;;;;;;4.00;3.00;;;;;21.00;57.81;100967.22;5077906;27;46389;-75
2022/10/22 11:05:57;;;;;;;;;2.25;2.25;;;;;20.73;57.66;100916.91;5077755;27;45352;-74
2022/10/22 11:08:31;;;;;;;;;6.00;4.00;;;;;21.02;57.95;100967.03;5076853;27;45406;-73
2022/10/22 11:11:10;;;;;;;;;3.00;3.00;;;;;20.75;57.30;100948.09;5073936;27;45310;-73
2022/10/22 11:13:50;;;;;;;;;5.00;3.00;;;;;21.07;57.66;100968.09;5082065;27;46089;-74
2022/10/22 11:16:22;;;;;;;;;5.25;4.25;;;;;20.99;57.52;100976.38;5094815;27;45781;-75
2022/10/22 11:19:11;;;;;;;;;2.75;2.00;;;;;20.98;57.75;100976.59;5078351;27;45455;-76
2022/10/22 11:21:51;;;;;;;;;6.00;4.00;;;;;20.70;58.14;100934.38;5078029;28;45422;-74
2022/10/22 11:24:40;;;;;;;;;2.00;2.00;;;;;20.93;58.09;100975.34;5077260;27;49091;-72
2022/10/22 11:27:20;;;;;;;;;2.50;1.50;;;;;20.98;58.16;100974.72;5058566;28;45185;-75
2022/10/22 11:29:55;;;;;;;;;2.50;2.50;;;;;20.73;57.92;100933.13;5090371;27;45466;-75
2022/10/22 11:32:22;;;;;;;;;6.00;4.25;;;;;20.98;57.67;100972.00;5077476;27;45359;-74
2022/10/22 11:34:53;;;;;;;;;5.00;3.25;;;;;20.71;57.34;100930.63;5092669;27;47278;-74
2022/10/22 11:37:20;;;;;;;;;4.50;3.00;;;;;21.03;57.49;100974.97;5077409;27;45288;-74